Kyles Ford, Tennessee
Current Conditions -  °F | °C
As of 7:35 AM on Monday 22 Dec 2014 (Local Time) from K0VG Reporting Station
Overcast Overcast  
Wind Chill: 39°   Ceiling: 3400
Heat Index: 39°   Visibility: 10mi
Dew Point: 37°   Wind: 0mph
Humidity: 93%   Direction: NA
Pressure: 30.07"   Gusts: NA
Location:  36.57°N, 83.04°W
Report Text: K0VG 221235Z AUTO 00000KT 10SM OVC034 04/03 A3007 RMK AO2
Loading
Personal Weather Stations






























Interactive Weather Map New forecast layout! Learn more

10-Day Weather Forecast

Advertisements
Track Severe Weather on mobile